sensor_id;sensor_type;location;lat;lon;timestamp;pressure;altitude;pressure_sealevel;temperature;humidity
17855;BME280;9053;53.358;6.382;2023-03-16T00:00:36;101764.19;;;5.39;83.86
17855;BME280;9053;53.358;6.382;2023-03-16T00:06:50;101747.63;;;5.38;83.80
17855;BME280;9053;53.358;6.382;2023-03-16T00:09:56;101746.75;;;5.38;83.66
17855;BME280;9053;53.358;6.382;2023-03-16T00:12:55;101751.97;;;5.38;83.79
17855;BME280;9053;53.358;6.382;2023-03-16T00:15:30;101749.22;;;5.36;83.78
17855;BME280;9053;53.358;6.382;2023-03-16T00:18:01;101746.41;;;5.33;83.81
17855;BME280;9053;53.358;6.382;2023-03-16T00:20:31;101749.03;;;5.33;83.80
17855;BME280;9053;53.358;6.382;2023-03-16T00:23:01;101730.69;;;5.32;83.84
17855;BME280;9053;53.358;6.382;2023-03-16T00:25:31;101735.09;;;5.33;83.75
17855;BME280;9053;53.358;6.382;2023-03-16T00:28:01;101734.28;;;5.34;83.83
17855;BME280;9053;53.358;6.382;2023-03-16T00:30:33;101739.50;;;5.34;83.94
17855;BME280;9053;53.358;6.382;2023-03-16T00:33:03;101737.81;;;5.34;83.93
17855;BME280;9053;53.358;6.382;2023-03-16T00:35:33;101724.66;;;5.33;83.93
17855;BME280;9053;53.358;6.382;2023-03-16T00:38:03;101718.53;;;5.32;83.80
17855;BME280;9053;53.358;6.382;2023-03-16T00:40:33;101722.84;;;5.32;83.94
17855;BME280;9053;53.358;6.382;2023-03-16T00:43:06;101727.13;;;5.31;83.92
17855;BME280;9053;53.358;6.382;2023-03-16T00:45:38;101721.91;;;5.31;83.96
17855;BME280;9053;53.358;6.382;2023-03-16T00:48:10;101726.34;;;5.32;83.98
17855;BME280;9053;53.358;6.382;2023-03-16T00:50:40;101722.84;;;5.32;83.94
17855;BME280;9053;53.358;6.382;2023-03-16T00:53:10;101723.63;;;5.31;83.80
17855;BME280;9053;53.358;6.382;2023-03-16T00:55:40;101707.97;;;5.31;83.90
17855;BME280;9053;53.358;6.382;2023-03-16T00:58:10;101713.31;;;5.32;83.86
17855;BME280;9053;53.358;6.382;2023-03-16T01:00:43;101709.13;;;5.34;83.97
17855;BME280;9053;53.358;6.382;2023-03-16T01:03:14;101697.75;;;5.34;83.89
17855;BME280;9053;53.358;6.382;2023-03-16T01:05:44;101688.34;;;5.36;83.95
17855;BME280;9053;53.358;6.382;2023-03-16T01:08:14;101686.63;;;5.36;83.82
17855;BME280;9053;53.358;6.382;2023-03-16T01:10:44;101692.78;;;5.37;83.86
17855;BME280;9053;53.358;6.382;2023-03-16T01:13:14;101677.91;;;5.36;83.72
17855;BME280;9053;53.358;6.382;2023-03-16T01:15:49;101678.91;;;5.38;83.80
17855;BME280;9053;53.358;6.382;2023-03-16T01:18:19;101670.28;;;5.39;83.88
17855;BME280;9053;53.358;6.382;2023-03-16T01:20:49;101665.88;;;5.38;83.77
17855;BME280;9053;53.358;6.382;2023-03-16T01:23:19;101669.38;;;5.38;83.85
17855;BME280;9053;53.358;6.382;2023-03-16T01:25:49;101667.66;;;5.39;83.73
17855;BME280;9053;53.358;6.382;2023-03-16T01:28:22;101659.84;;;5.39;83.69
17855;BME280;9053;53.358;6.382;2023-03-16T01:30:58;101666.88;;;5.40;83.71
17855;BME280;9053;53.358;6.382;2023-03-16T01:33:29;101655.44;;;5.38;83.67
17855;BME280;9053;53.358;6.382;2023-03-16T01:36:01;101651.13;;;5.38;83.71
17855;BME280;9053;53.358;6.382;2023-03-16T01:38:32;101651.94;;;5.37;83.62
17855;BME280;9053;53.358;6.382;2023-03-16T01:41:08;101659.63;;;5.36;83.67
17855;BME280;9053;53.358;6.382;2023-03-16T01:43:40;101663.16;;;5.36;83.56
17855;BME280;9053;53.358;6.382;2023-03-16T01:46:21;101652.63;;;5.35;83.75
17855;BME280;9053;53.358;6.382;2023-03-16T01:48:58;101655.31;;;5.36;83.67
17855;BME280;9053;53.358;6.382;2023-03-16T01:51:35;101631.06;;;5.37;83.68
17855;BME280;9053;53.358;6.382;2023-03-16T01:54:12;101624.13;;;5.38;83.54
17855;BME280;9053;53.358;6.382;2023-03-16T01:56:47;101621.63;;;5.39;83.73
17855;BME280;9053;53.358;6.382;2023-03-16T01:59:23;101630.38;;;5.40;83.63
17855;BME280;9053;53.358;6.382;2023-03-16T02:01:57;101635.59;;;5.40;83.66
17855;BME280;9053;53.358;6.382;2023-03-16T02:04:42;101625.16;;;5.40;83.70
17855;BME280;9053;53.358;6.382;2023-03-16T02:07:15;101623.31;;;5.39;83.75
17855;BME280;9053;53.358;6.382;2023-03-16T02:09:49;101619.94;;;5.40;83.72
17855;BME280;9053;53.358;6.382;2023-03-16T02:12:20;101616.31;;;5.38;83.62
17855;BME280;9053;53.358;6.382;2023-03-16T02:14:50;101611.91;;;5.37;83.69
17855;BME280;9053;53.358;6.382;2023-03-16T02:17:26;101607.66;;;5.39;83.76
17855;BME280;9053;53.358;6.382;2023-03-16T02:20:05;101600.66;;;5.38;83.75
17855;BME280;9053;53.358;6.382;2023-03-16T02:22:42;101605.88;;;5.38;83.69
17855;BME280;9053;53.358;6.382;2023-03-16T02:25:16;101599.75;;;5.37;83.82
17855;BME280;9053;53.358;6.382;2023-03-16T02:27:54;101599.63;;;5.36;83.66
17855;BME280;9053;53.358;6.382;2023-03-16T02:30:31;101590.03;;;5.35;83.67
17855;BME280;9053;53.358;6.382;2023-03-16T02:33:01;101594.44;;;5.36;83.81
17855;BME280;9053;53.358;6.382;2023-03-16T02:35:32;101587.41;;;5.35;83.66
17855;BME280;9053;53.358;6.382;2023-03-16T02:38:02;101591.81;;;5.36;83.75
17855;BME280;9053;53.358;6.382;2023-03-16T02:40:34;101579.66;;;5.36;83.73
17855;BME280;9053;53.358;6.382;2023-03-16T02:43:08;101580.59;;;5.37;83.76
17855;BME280;9053;53.358;6.382;2023-03-16T02:45:44;101578.00;;;5.37;83.64
17855;BME280;9053;53.358;6.382;2023-03-16T02:48:19;101581.38;;;5.36;83.65
17855;BME280;9053;53.358;6.382;2023-03-16T02:50:52;101578.88;;;5.37;83.68
17855;BME280;9053;53.358;6.382;2023-03-16T02:53:22;101576.28;;;5.37;83.49
17855;BME280;9053;53.358;6.382;2023-03-16T02:55:52;101568.53;;;5.39;83.52
17855;BME280;9053;53.358;6.382;2023-03-16T02:58:21;101570.25;;;5.38;83.62
17855;BME280;9053;53.358;6.382;2023-03-16T03:00:55;101569.53;;;5.41;83.43
17855;BME280;9053;53.358;6.382;2023-03-16T03:03:25;101571.38;;;5.42;83.63
17855;BME280;9053;53.358;6.382;2023-03-16T03:05:55;101559.31;;;5.44;83.54
17855;BME280;9053;53.358;6.382;2023-03-16T03:08:25;101556.69;;;5.44;83.55
17855;BME280;9053;53.358;6.382;2023-03-16T03:10:54;101548.88;;;5.44;83.54
17855;BME280;9053;53.358;6.382;2023-03-16T03:13:24;101544.66;;;5.46;83.45
17855;BME280;9053;53.358;6.382;2023-03-16T03:15:57;101544.59;;;5.45;83.54
17855;BME280;9053;53.358;6.382;2023-03-16T03:18:29;101541.03;;;5.44;83.60
17855;BME280;9053;53.358;6.382;2023-03-16T03:21:00;101538.44;;;5.44;83.60
17855;BME280;9053;53.358;6.382;2023-03-16T03:23:30;101534.16;;;5.45;83.60
17855;BME280;9053;53.358;6.382;2023-03-16T03:26:01;101531.44;;;5.43;83.71
17855;BME280;9053;53.358;6.382;2023-03-16T03:28:33;101527.81;;;5.41;83.67
17855;BME280;9053;53.358;6.382;2023-03-16T03:31:06;101522.59;;;5.41;83.61
17855;BME280;9053;53.358;6.382;2023-03-16T03:33:36;101524.19;;;5.39;83.68
17855;BME280;9053;53.358;6.382;2023-03-16T03:36:06;101519.91;;;5.39;83.69
17855;BME280;9053;53.358;6.382;2023-03-16T03:38:37;101515.47;;;5.38;83.65
17855;BME280;9053;53.358;6.382;2023-03-16T03:41:07;101518.06;;;5.38;83.65
17855;BME280;9053;53.358;6.382;2023-03-16T03:43:36;101513.75;;;5.39;83.76
17855;BME280;9053;53.358;6.382;2023-03-16T03:46:09;101506.75;;;5.38;83.80
17855;BME280;9053;53.358;6.382;2023-03-16T03:48:39;101505.94;;;5.39;83.79
17855;BME280;9053;53.358;6.382;2023-03-16T03:51:09;101501.53;;;5.38;83.80
17855;BME280;9053;53.358;6.382;2023-03-16T03:53:38;101505.16;;;5.40;83.81
17855;BME280;9053;53.358;6.382;2023-03-16T03:56:08;101506.03;;;5.40;83.87
17855;BME280;9053;53.358;6.382;2023-03-16T03:58:38;101503.56;;;5.42;83.90
17855;BME280;9053;53.358;6.382;2023-03-16T04:01:10;101503.56;;;5.42;83.99
17855;BME280;9053;53.358;6.382;2023-03-16T04:03:43;101503.56;;;5.42;83.85
17855;BME280;9053;53.358;6.382;2023-03-16T04:06:13;101500.13;;;5.43;84.02
17855;BME280;9053;53.358;6.382;2023-03-16T04:08:43;101513.16;;;5.43;84.01
17855;BME280;9053;53.358;6.382;2023-03-16T04:11:12;101505.34;;;5.43;83.92
17855;BME280;9053;53.358;6.382;2023-03-16T04:13:42;101504.53;;;5.44;83.97
17855;BME280;9053;53.358;6.382;2023-03-16T04:16:15;101498.53;;;5.45;84.02
17855;BME280;9053;53.358;6.382;2023-03-16T04:18:44;101491.72;;;5.47;84.03
17855;BME280;9053;53.358;6.382;2023-03-16T04:21:16;101493.50;;;5.48;83.95
17855;BME280;9053;53.358;6.382;2023-03-16T04:23:46;101490.88;;;5.48;84.02
17855;BME280;9053;53.358;6.382;2023-03-16T04:26:20;101480.44;;;5.48;83.89
17855;BME280;9053;53.358;6.382;2023-03-16T04:28:51;101482.25;;;5.49;83.93
17855;BME280;9053;53.358;6.382;2023-03-16T04:31:23;101485.84;;;5.51;83.90
17855;BME280;9053;53.358;6.382;2023-03-16T04:33:53;101467.59;;;5.51;84.05
17855;BME280;9053;53.358;6.382;2023-03-16T04:36:23;101480.75;;;5.53;84.10
17855;BME280;9053;53.358;6.382;2023-03-16T04:38:53;101466.81;;;5.52;84.14
17855;BME280;9053;53.358;6.382;2023-03-16T04:41:24;101467.78;;;5.54;84.16
17855;BME280;9053;53.358;6.382;2023-03-16T04:43:54;101470.41;;;5.54;84.19
17855;BME280;9053;53.358;6.382;2023-03-16T04:46:27;101461.66;;;5.54;84.16
17855;BME280;9053;53.358;6.382;2023-03-16T04:48:57;101464.28;;;5.54;84.20
17855;BME280;9053;53.358;6.382;2023-03-16T04:51:27;101459.00;;;5.52;84.18
17855;BME280;9053;53.358;6.382;2023-03-16T04:53:57;101460.88;;;5.55;84.22
17855;BME280;9053;53.358;6.382;2023-03-16T04:56:27;101452.13;;;5.54;84.26
17855;BME280;9053;53.358;6.382;2023-03-16T04:58:56;101454.84;;;5.56;84.23
17855;BME280;9053;53.358;6.382;2023-03-16T05:01:29;101450.53;;;5.56;84.25
17855;BME280;9053;53.358;6.382;2023-03-16T05:03:59;101447.13;;;5.57;84.29
17855;BME280;9053;53.358;6.382;2023-03-16T05:06:29;101452.34;;;5.57;84.28
17855;BME280;9053;53.358;6.382;2023-03-16T05:09:02;101444.59;;;5.59;84.31
17855;BME280;9053;53.358;6.382;2023-03-16T05:11:34;101441.91;;;5.57;84.44
17855;BME280;9053;53.358;6.382;2023-03-16T05:14:04;101435.81;;;5.57;84.42
17855;BME280;9053;53.358;6.382;2023-03-16T05:16:36;101440.91;;;5.55;84.39
17855;BME280;9053;53.358;6.382;2023-03-16T05:19:07;101441.81;;;5.56;84.46
17855;BME280;9053;53.358;6.382;2023-03-16T05:21:38;101439.31;;;5.57;84.26
17855;BME280;9053;53.358;6.382;2023-03-16T05:24:08;101435.88;;;5.58;84.46
17855;BME280;9053;53.358;6.382;2023-03-16T05:26:38;101441.22;;;5.60;84.58
17855;BME280;9053;53.358;6.382;2023-03-16T05:29:08;101436.88;;;5.60;84.58
17855;BME280;9053;53.358;6.382;2023-03-16T05:31:40;101437.88;;;5.62;84.50
17855;BME280;9053;53.358;6.382;2023-03-16T05:34:12;101434.38;;;5.62;84.64
17855;BME280;9053;53.358;6.382;2023-03-16T05:36:42;101437.06;;;5.63;84.55
17855;BME280;9053;53.358;6.382;2023-03-16T05:39:12;101438.78;;;5.63;84.53
17855;BME280;9053;53.358;6.382;2023-03-16T05:41:42;101439.59;;;5.62;84.68
17855;BME280;9053;53.358;6.382;2023-03-16T05:44:12;101438.78;;;5.63;84.62
17855;BME280;9053;53.358;6.382;2023-03-16T05:46:45;101437.06;;;5.63;84.61
17855;BME280;9053;53.358;6.382;2023-03-16T05:49:15;101436.16;;;5.63;84.61
17855;BME280;9053;53.358;6.382;2023-03-16T05:51:45;101431.97;;;5.65;84.83
17855;BME280;9053;53.358;6.382;2023-03-16T05:54:15;101435.56;;;5.67;84.82
17855;BME280;9053;53.358;6.382;2023-03-16T05:56:45;101432.97;;;5.67;84.86
17855;BME280;9053;53.358;6.382;2023-03-16T05:59:15;101445.19;;;5.68;84.83
17855;BME280;9053;53.358;6.382;2023-03-16T06:01:49;101431.25;;;5.68;84.95
17855;BME280;9053;53.358;6.382;2023-03-16T06:04:19;101437.47;;;5.70;84.93
17855;BME280;9053;53.358;6.382;2023-03-16T06:06:49;101436.66;;;5.71;84.96
17855;BME280;9053;53.358;6.382;2023-03-16T06:09:19;101431.31;;;5.69;85.05
17855;BME280;9053;53.358;6.382;2023-03-16T06:11:52;101440.16;;;5.71;85.07
17855;BME280;9053;53.358;6.382;2023-03-16T06:14:22;101428.81;;;5.71;85.18
17855;BME280;9053;53.358;6.382;2023-03-16T06:16:54;101431.31;;;5.69;85.37
17855;BME280;9053;53.358;6.382;2023-03-16T06:19:24;101421.81;;;5.70;85.35
17855;BME280;9053;53.358;6.382;2023-03-16T06:21:54;101425.22;;;5.69;85.51
17855;BME280;9053;53.358;6.382;2023-03-16T06:24:23;101414.69;;;5.67;85.46
17855;BME280;9053;53.358;6.382;2023-03-16T06:26:53;101414.59;;;5.66;85.59
17855;BME280;9053;53.358;6.382;2023-03-16T06:29:23;101414.59;;;5.66;85.61
17855;BME280;9053;53.358;6.382;2023-03-16T06:31:55;101410.06;;;5.63;85.70
17855;BME280;9053;53.358;6.382;2023-03-16T06:34:25;101405.56;;;5.60;85.87
17855;BME280;9053;53.358;6.382;2023-03-16T06:36:58;101404.75;;;5.61;85.94
17855;BME280;9053;53.358;6.382;2023-03-16T06:39:28;101409.19;;;5.62;86.07
17855;BME280;9053;53.358;6.382;2023-03-16T06:41:58;101402.25;;;5.63;86.18
17855;BME280;9053;53.358;6.382;2023-03-16T06:44:32;101403.16;;;5.63;86.15
17855;BME280;9053;53.358;6.382;2023-03-16T06:47:06;101403.25;;;5.65;86.42
17855;BME280;9053;53.358;6.382;2023-03-16T06:49:36;101403.25;;;5.65;86.27
17855;BME280;9053;53.358;6.382;2023-03-16T06:52:05;101404.25;;;5.67;86.45
17855;BME280;9053;53.358;6.382;2023-03-16T06:54:36;101403.31;;;5.67;86.55
17855;BME280;9053;53.358;6.382;2023-03-16T06:57:06;101398.09;;;5.67;86.56
17855;BME280;9053;53.358;6.382;2023-03-16T06:59:35;101404.34;;;5.69;86.71
17855;BME280;9053;53.358;6.382;2023-03-16T07:02:09;101403.53;;;5.70;86.78
17855;BME280;9053;53.358;6.382;2023-03-16T07:04:40;101401.84;;;5.70;86.77
17855;BME280;9053;53.358;6.382;2023-03-16T07:07:10;101408.84;;;5.71;86.99
17855;BME280;9053;53.358;6.382;2023-03-16T07:09:40;101408.94;;;5.73;87.04
17855;BME280;9053;53.358;6.382;2023-03-16T07:12:10;101407.34;;;5.75;87.05
17855;BME280;9053;53.358;6.382;2023-03-16T07:14:40;101411.13;;;5.80;87.22
17855;BME280;9053;53.358;6.382;2023-03-16T07:17:13;101406.88;;;5.82;87.27
17855;BME280;9053;53.358;6.382;2023-03-16T07:19:42;101402.66;;;5.84;87.42
17855;BME280;9053;53.358;6.382;2023-03-16T07:22:15;101406.28;;;5.86;87.45
17855;BME280;9053;53.358;6.382;2023-03-16T07:24:45;101408.06;;;5.87;87.49
17855;BME280;9053;53.358;6.382;2023-03-16T07:27:17;101401.25;;;5.89;87.57
17855;BME280;9053;53.358;6.382;2023-03-16T07:29:49;101412.69;;;5.91;87.70
17855;BME280;9053;53.358;6.382;2023-03-16T07:32:23;101416.31;;;5.93;87.71
17855;BME280;9053;53.358;6.382;2023-03-16T07:34:55;101413.69;;;5.93;87.73
17855;BME280;9053;53.358;6.382;2023-03-16T07:37:25;101414.09;;;5.99;87.99
17855;BME280;9053;53.358;6.382;2023-03-16T07:39:55;101409.88;;;6.01;87.92
17855;BME280;9053;53.358;6.382;2023-03-16T07:42:25;101417.16;;;6.07;87.99
17855;BME280;9053;53.358;6.382;2023-03-16T07:44:55;101411.16;;;6.08;88.11
17855;BME280;9053;53.358;6.382;2023-03-16T07:47:27;101416.66;;;6.13;88.10
17855;BME280;9053;53.358;6.382;2023-03-16T07:49:59;101406.41;;;6.16;88.25
17855;BME280;9053;53.358;6.382;2023-03-16T07:52:29;101410.06;;;6.19;88.37
17855;BME280;9053;53.358;6.382;2023-03-16T07:55:03;101407.75;;;6.24;88.41
17855;BME280;9053;53.358;6.382;2023-03-16T07:57:35;101410.66;;;6.28;88.51
17855;BME280;9053;53.358;6.382;2023-03-16T08:00:06;101407.31;;;6.31;88.68
17855;BME280;9053;53.358;6.382;2023-03-16T08:02:39;101402.25;;;6.34;88.78
17855;BME280;9053;53.358;6.382;2023-03-16T08:05:09;101401.53;;;6.37;88.87
17855;BME280;9053;53.358;6.382;2023-03-16T08:07:41;101399.09;;;6.40;88.95
17855;BME280;9053;53.358;6.382;2023-03-16T08:10:11;101396.59;;;6.41;89.06
17855;BME280;9053;53.358;6.382;2023-03-16T08:12:41;101396.78;;;6.44;89.15
17855;BME280;9053;53.358;6.382;2023-03-16T08:15:10;101391.72;;;6.47;89.16
17855;BME280;9053;53.358;6.382;2023-03-16T08:17:43;101396.44;;;6.53;89.29
17855;BME280;9053;53.358;6.382;2023-03-16T08:20:15;101396.50;;;6.55;89.47
17855;BME280;9053;53.358;6.382;2023-03-16T08:22:45;101401.94;;;6.58;89.38
17855;BME280;9053;53.358;6.382;2023-03-16T08:25:15;101396.72;;;6.58;89.52
17855;BME280;9053;53.358;6.382;2023-03-16T08:27:46;101401.13;;;6.59;89.76
17855;BME280;9053;53.358;6.382;2023-03-16T08:30:17;101398.50;;;6.59;89.79
17855;BME280;9053;53.358;6.382;2023-03-16T08:32:50;101401.13;;;6.59;89.87
17855;BME280;9053;53.358;6.382;2023-03-16T08:35:20;101390.66;;;6.59;89.89
17855;BME280;9053;53.358;6.382;2023-03-16T08:37:50;101405.44;;;6.58;90.09
17855;BME280;9053;53.358;6.382;2023-03-16T08:40:21;101400.22;;;6.58;90.06
17855;BME280;9053;53.358;6.382;2023-03-16T08:42:56;101409.78;;;6.58;90.27
17855;BME280;9053;53.358;6.382;2023-03-16T08:45:27;101402.72;;;6.57;90.37
17855;BME280;9053;53.358;6.382;2023-03-16T08:47:59;101398.41;;;6.57;90.49
17855;BME280;9053;53.358;6.382;2023-03-16T08:50:30;101398.41;;;6.57;90.55
17855;BME280;9053;53.358;6.382;2023-03-16T08:53:00;101395.78;;;6.57;90.66
17855;BME280;9053;53.358;6.382;2023-03-16T08:55:30;101395.88;;;6.59;90.71
17855;BME280;9053;53.358;6.382;2023-03-16T08:57:59;101389.09;;;6.62;90.88
17855;BME280;9053;53.358;6.382;2023-03-16T09:00:30;101393.63;;;6.65;91.03
17855;BME280;9053;53.358;6.382;2023-03-16T09:03:02;101398.06;;;6.66;91.22
17855;BME280;9053;53.358;6.382;2023-03-16T09:05:32;101389.38;;;6.67;91.33
17855;BME280;9053;53.358;6.382;2023-03-16T09:08:02;101391.22;;;6.68;91.54
17855;BME280;9053;53.358;6.382;2023-03-16T09:10:32;101387.78;;;6.69;91.62
17855;BME280;9053;53.358;6.382;2023-03-16T09:13:03;101399.22;;;6.71;91.83
17855;BME280;9053;53.358;6.382;2023-03-16T09:15:34;101394.06;;;6.72;91.86
17855;BME280;9053;53.358;6.382;2023-03-16T09:18:07;101391.44;;;6.72;92.06
17855;BME280;9053;53.358;6.382;2023-03-16T09:20:37;101394.16;;;6.74;92.21
17855;BME280;9053;53.358;6.382;2023-03-16T09:23:07;101388.09;;;6.75;92.31
17855;BME280;9053;53.358;6.382;2023-03-16T09:25:37;101392.59;;;6.78;92.50
17855;BME280;9053;53.358;6.382;2023-03-16T09:28:07;101391.88;;;6.80;92.62
17855;BME280;9053;53.358;6.382;2023-03-16T09:30:37;101385.88;;;6.81;92.81
17855;BME280;9053;53.358;6.382;2023-03-16T09:33:09;101388.38;;;6.80;92.93
17855;BME280;9053;53.358;6.382;2023-03-16T09:35:39;101374.31;;;6.78;93.10
17855;BME280;9053;53.358;6.382;2023-03-16T09:38:11;101368.19;;;6.77;93.22
17855;BME280;9053;53.358;6.382;2023-03-16T09:40:42;101367.41;;;6.78;93.40
17855;BME280;9053;53.358;6.382;2023-03-16T09:43:42;101369.34;;;6.82;93.59
17855;BME280;9053;53.358;6.382;2023-03-16T09:46:25;101369.44;;;6.84;93.75
17855;BME280;9053;53.358;6.382;2023-03-16T09:49:04;101367.91;;;6.87;94.10
17855;BME280;9053;53.358;6.382;2023-03-16T09:51:37;101370.78;;;6.92;94.08
17855;BME280;9053;53.358;6.382;2023-03-16T09:54:19;101353.47;;;6.94;94.34
17855;BME280;9053;53.358;6.382;2023-03-16T09:56:53;101363.38;;;7.00;94.52
17855;BME280;9053;53.358;6.382;2023-03-16T09:59:24;101353.06;;;7.03;94.87
17855;BME280;9053;53.358;6.382;2023-03-16T10:02:16;101361.28;;;7.09;95.05
17855;BME280;9053;53.358;6.382;2023-03-16T10:05:05;101351.72;;;7.09;95.16
17855;BME280;9053;53.358;6.382;2023-03-16T10:07:46;101372.75;;;7.11;95.42
17855;BME280;9053;53.358;6.382;2023-03-16T10:10:34;101350.25;;;7.14;95.65
17855;BME280;9053;53.358;6.382;2023-03-16T10:13:16;101351.25;;;7.17;95.93
17855;BME280;9053;53.358;6.382;2023-03-16T10:15:52;101338.22;;;7.18;96.02
17855;BME280;9053;53.358;6.382;2023-03-16T10:18:26;101340.16;;;7.21;96.22
17855;BME280;9053;53.358;6.382;2023-03-16T10:21:01;101328.13;;;7.24;96.36
17855;BME280;9053;53.358;6.382;2023-03-16T10:23:33;101332.53;;;7.25;96.44
17855;BME280;9053;53.358;6.382;2023-03-16T10:26:12;101332.78;;;7.30;96.69
17855;BME280;9053;53.358;6.382;2023-03-16T10:28:42;101331.25;;;7.33;96.86
17855;BME280;9053;53.358;6.382;2023-03-16T10:31:20;101327.06;;;7.37;97.07
17855;BME280;9053;53.358;6.382;2023-03-16T10:33:55;101314.88;;;7.37;97.24
17855;BME280;9053;53.358;6.382;2023-03-16T10:36:32;101315.78;;;7.38;97.37
17855;BME280;9053;53.358;6.382;2023-03-16T10:39:05;101316.72;;;7.39;97.49
17855;BME280;9053;53.358;6.382;2023-03-16T10:41:37;101301.16;;;7.42;97.62
17855;BME280;9053;53.358;6.382;2023-03-16T10:44:10;101311.78;;;7.45;97.84
17855;BME280;9053;53.358;6.382;2023-03-16T10:46:41;101306.72;;;7.48;97.91
17855;BME280;9053;53.358;6.382;2023-03-16T10:49:20;101317.28;;;7.49;98.13
17855;BME280;9053;53.358;6.382;2023-03-16T10:51:55;101309.47;;;7.51;98.20
17855;BME280;9053;53.358;6.382;2023-03-16T10:54:32;101308.69;;;7.52;98.28
17855;BME280;9053;53.358;6.382;2023-03-16T10:57:12;101311.31;;;7.52;98.45
17855;BME280;9053;53.358;6.382;2023-03-16T10:59:47;101306.97;;;7.52;98.68
17855;BME280;9053;53.358;6.382;2023-03-16T11:02:20;101314.00;;;7.53;98.61
17855;BME280;9053;53.358;6.382;2023-03-16T11:04:52;101298.31;;;7.53;98.70
17855;BME280;9053;53.358;6.382;2023-03-16T11:07:25;101296.66;;;7.55;98.82
17855;BME280;9053;53.358;6.382;2023-03-16T11:09:55;101281.03;;;7.57;98.91
17855;BME280;9053;53.358;6.382;2023-03-16T11:12:29;101288.00;;;7.56;98.90
17855;BME280;9053;53.358;6.382;2023-03-16T11:15:01;101289.78;;;7.57;99.11
17855;BME280;9053;53.358;6.382;2023-03-16T11:17:44;101289.00;;;7.58;99.13
17855;BME280;9053;53.358;6.382;2023-03-16T11:20:17;101281.13;;;7.58;99.27
17855;BME280;9053;53.358;6.382;2023-03-16T11:22:52;101272.53;;;7.61;99.33
17855;BME280;9053;53.358;6.382;2023-03-16T11:25:26;101274.41;;;7.64;99.38
17855;BME280;9053;53.358;6.382;2023-03-16T11:28:05;101278.81;;;7.65;99.55
17855;BME280;9053;53.358;6.382;2023-03-16T11:30:40;101261.53;;;7.68;99.57
17855;BME280;9053;53.358;6.382;2023-03-16T11:33:13;101269.75;;;7.74;99.80
17855;BME280;9053;53.358;6.382;2023-03-16T11:35:46;101266.44;;;7.78;99.79
17855;BME280;9053;53.358;6.382;2023-03-16T11:38:32;101265.88;;;7.84;99.86
17855;BME280;9053;53.358;6.382;2023-03-16T11:41:08;101261.78;;;7.89;100.00
17855;BME280;9053;53.358;6.382;2023-03-16T11:43:48;101249.72;;;7.93;100.00
17855;BME280;9053;53.358;6.382;2023-03-16T11:46:22;101250.63;;;7.93;100.00
17855;BME280;9053;53.358;6.382;2023-03-16T11:49:01;101268.38;;;7.99;100.00
17855;BME280;9053;53.358;6.382;2023-03-16T11:51:43;101255.44;;;8.02;100.00
17855;BME280;9053;53.358;6.382;2023-03-16T11:54:31;101254.84;;;8.08;100.00
17855;BME280;9053;53.358;6.382;2023-03-16T11:57:08;101248.94;;;8.12;100.00
17855;BME280;9053;53.358;6.382;2023-03-16T11:59:53;101246.47;;;8.15;100.00
17855;BME280;9053;53.358;6.382;2023-03-16T12:02:38;101254.56;;;8.19;100.00
17855;BME280;9053;53.358;6.382;2023-03-16T12:05:24;101231.97;;;8.21;100.00
17855;BME280;9053;53.358;6.382;2023-03-16T12:08:10;101235.53;;;8.23;100.00
17855;BME280;9053;53.358;6.382;2023-03-16T12:10:52;101243.47;;;8.25;100.00
17855;BME280;9053;53.358;6.382;2023-03-16T12:13:36;101243.72;;;8.30;100.00
17855;BME280;9053;53.358;6.382;2023-03-16T12:16:16;101234.34;;;8.35;100.00
17855;BME280;9053;53.358;6.382;2023-03-16T12:18:51;101216.41;;;8.42;100.00
17855;BME280;9053;53.358;6.382;2023-03-16T12:21:27;101209.72;;;8.49;100.00
17855;BME280;9053;53.358;6.382;2023-03-16T12:24:02;101210.03;;;8.55;100.00
17855;BME280;9053;53.358;6.382;2023-03-16T12:26:38;101211.25;;;8.62;100.00
17855;BME280;9053;53.358;6.382;2023-03-16T12:29:15;101199.28;;;8.69;100.00
17855;BME280;9053;53.358;6.382;2023-03-16T12:31:53;101203.16;;;8.77;100.00
17855;BME280;9053;53.358;6.382;2023-03-16T12:34:32;101203.59;;;8.86;100.00
17855;BME280;9053;53.358;6.382;2023-03-16T12:37:18;101204.84;;;8.94;100.00
17855;BME280;9053;53.358;6.382;2023-03-16T12:39:58;101208.59;;;8.99;100.00
17855;BME280;9053;53.358;6.382;2023-03-16T12:42:47;101209.69;;;9.04;100.00
17855;BME280;9053;53.358;6.382;2023-03-16T12:45:28;101188.16;;;9.12;100.00
17855;BME280;9053;53.358;6.382;2023-03-16T12:48:08;101177.88;;;9.16;100.00
17855;BME280;9053;53.358;6.382;2023-03-16T12:50:48;101191.22;;;9.21;99.99
17855;BME280;9053;53.358;6.382;2023-03-16T12:53:27;101184.44;;;9.26;99.89
17855;BME280;9053;53.358;6.382;2023-03-16T12:56:04;101187.28;;;9.30;99.82
17855;BME280;9053;53.358;6.382;2023-03-16T12:58:40;101178.75;;;9.36;99.63
17855;BME280;9053;53.358;6.382;2023-03-16T13:01:12;101179.78;;;9.40;99.47
17855;BME280;9053;53.358;6.382;2023-03-16T13:03:46;101183.47;;;9.43;99.31
17855;BME280;9053;53.358;6.382;2023-03-16T13:06:20;101184.47;;;9.47;99.22
17855;BME280;9053;53.358;6.382;2023-03-16T13:08:54;101177.56;;;9.49;98.95
17855;BME280;9053;53.358;6.382;2023-03-16T13:11:27;101174.06;;;9.48;98.90
17855;BME280;9053;53.358;6.382;2023-03-16T13:14:12;101167.97;;;9.49;98.70
17855;BME280;9053;53.358;6.382;2023-03-16T13:16:43;101167.06;;;9.49;98.44
17855;BME280;9053;53.358;6.382;2023-03-16T13:19:22;101163.63;;;9.50;98.35
17855;BME280;9053;53.358;6.382;2023-03-16T13:22:04;101163.63;;;9.50;98.18
17855;BME280;9053;53.358;6.382;2023-03-16T13:24:36;101160.94;;;9.48;98.00
17855;BME280;9053;53.358;6.382;2023-03-16T13:27:18;101147.09;;;9.52;97.90
17855;BME280;9053;53.358;6.382;2023-03-16T13:30:00;101142.88;;;9.56;97.66
17855;BME280;9053;53.358;6.382;2023-03-16T13:32:32;101142.09;;;9.59;97.53
17855;BME280;9053;53.358;6.382;2023-03-16T13:35:06;101143.06;;;9.61;97.46
17855;BME280;9053;53.358;6.382;2023-03-16T13:37:37;101135.31;;;9.64;97.26
17855;BME280;9053;53.358;6.382;2023-03-16T13:40:19;101132.00;;;9.68;97.09
17855;BME280;9053;53.358;6.382;2023-03-16T13:42:50;101132.25;;;9.74;97.02
17855;BME280;9053;53.358;6.382;2023-03-16T13:45:32;101138.78;;;9.84;97.00